createdAt,value
2022-10-18T00:00:34.236Z,991.71
2022-10-18T00:01:34.314Z,991.67
2022-10-18T00:02:34.383Z,991.72
2022-10-18T00:03:34.264Z,991.63
2022-10-18T00:04:34.184Z,991.63
2022-10-18T00:05:34.303Z,991.65
2022-10-18T00:06:34.188Z,991.64
2022-10-18T00:07:34.219Z,991.66
2022-10-18T00:08:34.146Z,991.69
2022-10-18T00:09:34.195Z,991.66
2022-10-18T00:10:34.112Z,991.68
2022-10-18T00:11:34.133Z,991.67
2022-10-18T00:12:34.132Z,991.70
2022-10-18T00:13:34.086Z,991.71
2022-10-18T00:14:34.053Z,991.69
2022-10-18T00:15:34.074Z,991.73
2022-10-18T00:16:34.043Z,991.71
2022-10-18T00:17:34.155Z,991.71
2022-10-18T00:18:34.044Z,991.68
2022-10-18T00:19:34.031Z,991.65
2022-10-18T00:20:34.024Z,991.61
2022-10-18T00:21:34.091Z,991.61
2022-10-18T00:22:34.068Z,991.60
2022-10-18T00:23:33.975Z,991.57
2022-10-18T00:24:34.015Z,991.58
2022-10-18T00:25:33.963Z,991.61
2022-10-18T00:26:33.934Z,991.60
2022-10-18T00:27:33.937Z,991.65
2022-10-18T00:28:33.976Z,991.70
2022-10-18T00:29:33.905Z,991.80
2022-10-18T00:30:33.894Z,991.72
2022-10-18T00:31:33.974Z,991.73
2022-10-18T00:32:34.153Z,991.73
2022-10-18T00:33:33.870Z,991.71
2022-10-18T00:34:33.846Z,991.71
2022-10-18T00:35:33.876Z,991.70
2022-10-18T00:36:33.824Z,991.71
2022-10-18T00:37:33.814Z,991.73
2022-10-18T00:38:33.843Z,991.75
2022-10-18T00:39:33.829Z,991.73
2022-10-18T00:40:34.686Z,991.75
2022-10-18T00:41:35.584Z,991.79
2022-10-18T00:42:34.099Z,991.74
2022-10-18T00:43:33.762Z,991.73
2022-10-18T00:44:33.755Z,991.70
2022-10-18T00:45:33.817Z,991.68
2022-10-18T00:46:33.715Z,991.67
2022-10-18T00:47:33.724Z,991.67
2022-10-18T00:48:33.684Z,991.70
2022-10-18T00:49:33.698Z,991.70
2022-10-18T00:50:33.674Z,991.67
2022-10-18T00:51:33.674Z,991.66
2022-10-18T00:52:34.025Z,991.69
2022-10-18T00:53:33.666Z,991.71
2022-10-18T00:54:33.605Z,991.64
2022-10-18T00:55:33.690Z,991.65
2022-10-18T00:56:33.609Z,991.65
2022-10-18T00:57:33.614Z,991.64
2022-10-18T00:58:33.588Z,991.65
2022-10-18T00:59:33.638Z,991.60
2022-10-18T01:00:33.570Z,991.60
2022-10-18T01:01:34.506Z,991.58
2022-10-18T01:02:34.413Z,991.54
2022-10-18T01:03:33.741Z,991.53
2022-10-18T01:04:33.519Z,991.53
2022-10-18T01:05:33.519Z,991.49
2022-10-18T01:06:33.475Z,991.53
2022-10-18T01:07:33.921Z,991.51
2022-10-18T01:08:33.482Z,991.47
2022-10-18T01:09:33.468Z,991.50
2022-10-18T01:10:33.437Z,991.47
2022-10-18T01:11:33.454Z,991.48
2022-10-18T01:12:33.425Z,991.47
2022-10-18T01:13:33.415Z,991.43
2022-10-18T01:14:33.420Z,991.44
2022-10-18T01:15:33.398Z,991.43
2022-10-18T01:16:33.357Z,991.42
2022-10-18T01:17:33.533Z,991.43
2022-10-18T01:18:33.337Z,991.43
2022-10-18T01:19:33.837Z,991.41
2022-10-18T01:20:33.340Z,991.38
2022-10-18T01:21:33.398Z,991.36
2022-10-18T01:22:33.315Z,991.38
2022-10-18T01:23:33.318Z,991.34
2022-10-18T01:24:33.576Z,991.34
2022-10-18T01:25:33.301Z,991.24
2022-10-18T01:26:33.258Z,991.23
2022-10-18T01:27:33.547Z,991.20
2022-10-18T01:28:33.359Z,991.21
2022-10-18T01:29:33.237Z,991.21
2022-10-18T01:30:33.210Z,991.20
2022-10-18T01:31:33.224Z,991.19
2022-10-18T01:32:33.188Z,991.19
2022-10-18T01:33:33.197Z,991.21
2022-10-18T01:34:33.166Z,991.22
2022-10-18T01:35:33.264Z,991.22
2022-10-18T01:36:34.157Z,991.24
2022-10-18T01:37:33.484Z,991.25
2022-10-18T01:38:33.208Z,991.26
2022-10-18T01:39:33.114Z,991.26
2022-10-18T01:40:33.101Z,991.26
2022-10-18T01:41:33.927Z,991.26
2022-10-18T01:42:33.136Z,991.28
2022-10-18T01:43:33.299Z,991.27
2022-10-18T01:44:33.912Z,991.25
2022-10-18T01:45:33.057Z,991.28
2022-10-18T01:46:33.026Z,991.23
2022-10-18T01:47:33.437Z,991.22
2022-10-18T01:48:33.016Z,991.26
2022-10-18T01:49:33.006Z,991.22
2022-10-18T01:50:32.996Z,991.26
2022-10-18T01:51:32.976Z,991.27
2022-10-18T01:52:33.137Z,991.25
2022-10-18T01:53:32.983Z,991.25
2022-10-18T01:54:32.936Z,991.26
2022-10-18T01:55:32.937Z,991.26
2022-10-18T01:56:32.906Z,991.25
2022-10-18T01:57:32.908Z,991.26
2022-10-18T01:58:32.896Z,991.24
2022-10-18T01:59:32.897Z,991.21
2022-10-18T02:00:32.876Z,991.18
2022-10-18T02:01:32.881Z,991.16
2022-10-18T02:02:33.864Z,991.15
2022-10-18T02:03:32.849Z,991.16
2022-10-18T02:04:33.242Z,991.16
2022-10-18T02:05:32.816Z,991.17
2022-10-18T02:06:32.798Z,991.15
2022-10-18T02:07:32.786Z,991.14
2022-10-18T02:08:32.769Z,991.13
2022-10-18T02:09:32.789Z,991.12
2022-10-18T02:10:32.760Z,991.13
2022-10-18T02:11:32.739Z,991.10
2022-10-18T02:12:32.965Z,991.13
2022-10-18T02:13:32.748Z,991.09
2022-10-18T02:14:33.320Z,991.11
2022-10-18T02:15:32.744Z,991.11
2022-10-18T02:16:32.693Z,991.12
2022-10-18T02:17:32.698Z,991.10
2022-10-18T02:18:32.647Z,991.10
2022-10-18T02:19:32.661Z,991.11
2022-10-18T02:20:32.655Z,991.08
2022-10-18T02:21:32.647Z,991.07
2022-10-18T02:22:33.689Z,991.04
2022-10-18T02:23:32.619Z,991.02
2022-10-18T02:24:32.642Z,991.02
2022-10-18T02:25:32.584Z,990.98
2022-10-18T02:26:32.557Z,991.00
2022-10-18T02:27:32.569Z,990.98
2022-10-18T02:28:32.528Z,990.98
2022-10-18T02:29:33.446Z,990.97
2022-10-18T02:30:32.527Z,990.96
2022-10-18T02:31:32.542Z,990.98
2022-10-18T02:32:32.907Z,991.00
2022-10-18T02:33:32.496Z,991.00
2022-10-18T02:34:33.029Z,991.00
2022-10-18T02:35:32.518Z,991.01
2022-10-18T02:36:32.446Z,991.00
2022-10-18T02:37:32.449Z,990.99
2022-10-18T02:38:32.432Z,990.99
2022-10-18T02:39:32.427Z,990.96
2022-10-18T02:40:33.167Z,990.94
2022-10-18T02:41:32.406Z,990.91
2022-10-18T02:42:32.782Z,990.85
2022-10-18T02:43:33.095Z,990.80
2022-10-18T02:44:33.278Z,990.82
2022-10-18T02:45:32.363Z,990.86
2022-10-18T02:46:32.470Z,990.90
2022-10-18T02:47:32.441Z,990.85
2022-10-18T02:48:32.399Z,990.89
2022-10-18T02:49:32.341Z,990.90
2022-10-18T02:50:32.290Z,990.92
2022-10-18T02:51:33.121Z,990.86
2022-10-18T02:52:32.255Z,990.93
2022-10-18T02:53:32.428Z,990.95
2022-10-18T02:54:32.242Z,990.90
2022-10-18T02:55:32.265Z,990.92
2022-10-18T02:56:32.218Z,990.91
2022-10-18T02:57:32.619Z,990.92
2022-10-18T02:58:32.245Z,990.91
2022-10-18T02:59:32.198Z,990.92
2022-10-18T03:00:32.195Z,990.92
2022-10-18T03:01:32.225Z,990.95
2022-10-18T03:02:32.176Z,990.89
2022-10-18T03:03:32.970Z,990.91
2022-10-18T03:04:32.167Z,990.95
2022-10-18T03:05:32.137Z,990.96
2022-10-18T03:06:32.109Z,990.97
2022-10-18T03:07:32.458Z,990.96
2022-10-18T03:08:32.069Z,990.99
2022-10-18T03:09:32.079Z,991.01
2022-10-18T03:10:32.228Z,991.02
2022-10-18T03:11:32.052Z,990.96
2022-10-18T03:12:32.127Z,991.01
2022-10-18T03:13:32.481Z,991.01
2022-10-18T03:14:32.020Z,991.00
2022-10-18T03:15:32.010Z,991.02
2022-10-18T03:16:32.020Z,991.03
2022-10-18T03:17:32.159Z,991.05
2022-10-18T03:18:32.093Z,991.05
2022-10-18T03:19:33.746Z,991.06
2022-10-18T03:20:31.948Z,991.08
2022-10-18T03:21:31.963Z,991.01
2022-10-18T03:22:31.980Z,991.04
2022-10-18T03:23:31.954Z,991.02
2022-10-18T03:24:32.740Z,991.04
2022-10-18T03:25:32.651Z,991.03
2022-10-18T03:26:31.881Z,991.09
2022-10-18T03:27:32.167Z,991.07
2022-10-18T03:28:31.917Z,991.08
2022-10-18T03:29:31.832Z,991.08
2022-10-18T03:30:31.872Z,991.09
2022-10-18T03:31:31.817Z,991.10
2022-10-18T03:32:32.097Z,991.14
2022-10-18T03:33:31.789Z,991.12
2022-10-18T03:34:31.811Z,991.11
2022-10-18T03:35:31.759Z,991.14
2022-10-18T03:36:31.770Z,991.13
2022-10-18T03:37:31.738Z,991.15
2022-10-18T03:38:31.752Z,991.16
2022-10-18T03:39:31.730Z,991.18
2022-10-18T03:41:32.129Z,991.17
2022-10-18T03:42:31.994Z,991.20
2022-10-18T03:43:31.677Z,991.19
2022-10-18T03:44:31.697Z,991.17
2022-10-18T03:45:32.524Z,991.13
2022-10-18T03:46:32.425Z,991.14
2022-10-18T03:47:31.630Z,991.14
2022-10-18T03:48:31.780Z,991.12
2022-10-18T03:50:31.612Z,991.11
2022-10-18T03:51:31.591Z,991.12
2022-10-18T03:52:31.891Z,991.11
2022-10-18T03:53:31.568Z,991.09
2022-10-18T03:54:31.710Z,991.11
2022-10-18T03:55:31.545Z,991.10
2022-10-18T03:56:31.559Z,991.07
2022-10-18T03:57:31.517Z,991.14
2022-10-18T03:58:31.564Z,991.10
2022-10-18T03:59:31.579Z,991.14
2022-10-18T04:00:32.501Z,991.13
2022-10-18T04:01:31.548Z,991.14
2022-10-18T04:02:31.855Z,991.09
2022-10-18T04:03:31.450Z,991.12
2022-10-18T04:04:32.256Z,991.11
2022-10-18T04:05:32.127Z,991.08
2022-10-18T04:06:32.351Z,991.12
2022-10-18T04:07:31.453Z,991.11
2022-10-18T04:08:31.402Z,991.14
2022-10-18T04:09:31.427Z,991.12
2022-10-18T04:10:31.412Z,991.14
2022-10-18T04:11:31.380Z,991.18
2022-10-18T04:12:31.665Z,991.17
2022-10-18T04:13:31.340Z,991.17
2022-10-18T04:14:31.338Z,991.18
2022-10-18T04:15:31.309Z,991.17
2022-10-18T04:16:31.338Z,991.18
2022-10-18T04:17:31.673Z,991.19
2022-10-18T04:18:31.281Z,991.13
2022-10-18T04:19:31.260Z,991.19
2022-10-18T04:20:31.277Z,991.16
2022-10-18T04:21:31.247Z,991.16
2022-10-18T04:22:31.800Z,991.15
2022-10-18T04:23:32.798Z,991.16
2022-10-18T04:24:32.430Z,991.18
2022-10-18T04:25:32.077Z,991.17
2022-10-18T04:26:31.928Z,991.15
2022-10-18T04:27:31.477Z,991.15
2022-10-18T04:28:31.380Z,991.19
2022-10-18T04:29:31.166Z,991.17
2022-10-18T04:30:31.141Z,991.19
2022-10-18T04:31:31.241Z,991.18
2022-10-18T04:32:31.136Z,991.20
2022-10-18T04:33:31.100Z,991.20
2022-10-18T04:34:31.192Z,991.17
2022-10-18T04:35:31.087Z,991.19
2022-10-18T04:36:31.284Z,991.18
2022-10-18T04:37:31.395Z,991.21
2022-10-18T04:38:31.300Z,991.22
2022-10-18T04:39:31.048Z,991.25
2022-10-18T04:40:31.046Z,991.22
2022-10-18T04:41:31.093Z,991.22
2022-10-18T04:42:31.032Z,991.25
2022-10-18T04:43:31.015Z,991.26
2022-10-18T04:44:31.231Z,991.28
2022-10-18T04:45:30.989Z,991.31
2022-10-18T04:46:31.002Z,991.29
2022-10-18T04:47:31.923Z,991.27
2022-10-18T04:48:30.943Z,991.24
2022-10-18T04:49:31.800Z,991.25
2022-10-18T04:50:30.933Z,991.28
2022-10-18T04:51:30.892Z,991.30
2022-10-18T04:52:30.958Z,991.23
2022-10-18T04:53:30.864Z,991.23
2022-10-18T04:54:30.896Z,991.24
2022-10-18T04:55:30.862Z,991.24
2022-10-18T04:56:30.852Z,991.35
2022-10-18T04:57:31.126Z,991.33
2022-10-18T04:58:30.851Z,991.34
2022-10-18T04:59:30.883Z,991.38
2022-10-18T05:00:30.814Z,991.32
2022-10-18T05:01:30.830Z,991.29
2022-10-18T05:02:31.257Z,991.33
2022-10-18T05:03:30.752Z,991.28
2022-10-18T05:04:30.852Z,991.37
2022-10-18T05:05:49.798Z,991.28
2022-10-18T05:06:31.742Z,991.31
2022-10-18T05:07:30.801Z,991.29
2022-10-18T05:08:30.710Z,991.29
2022-10-18T05:09:30.682Z,991.33
2022-10-18T05:10:30.692Z,991.30
2022-10-18T05:11:30.811Z,991.25
2022-10-18T05:12:30.928Z,991.31
2022-10-18T05:13:30.661Z,991.28
2022-10-18T05:14:30.671Z,991.28
2022-10-18T05:15:30.611Z,991.22
2022-10-18T05:16:30.722Z,991.17
2022-10-18T05:17:30.602Z,991.15
2022-10-18T05:18:30.594Z,991.14
2022-10-18T05:19:30.582Z,991.16
2022-10-18T05:20:30.590Z,991.17
2022-10-18T05:21:30.579Z,991.21
2022-10-18T05:22:30.793Z,991.19
2022-10-18T05:23:30.571Z,991.15
2022-10-18T05:24:30.531Z,991.22
2022-10-18T05:25:30.517Z,991.17
2022-10-18T05:26:31.272Z,991.16
2022-10-18T05:27:30.495Z,991.11
2022-10-18T05:28:45.898Z,991.14
2022-10-18T05:29:31.549Z,991.15
2022-10-18T05:30:30.451Z,991.14
2022-10-18T05:31:30.461Z,991.17
2022-10-18T05:32:30.760Z,991.13
2022-10-18T05:33:30.454Z,991.12
2022-10-18T05:34:30.445Z,991.09
2022-10-18T05:35:30.412Z,991.06
2022-10-18T05:36:30.405Z,991.06
2022-10-18T05:37:30.413Z,991.06
2022-10-18T05:38:30.412Z,991.06
2022-10-18T05:39:30.362Z,991.08
2022-10-18T05:40:30.372Z,991.14
2022-10-18T05:41:30.334Z,991.19
2022-10-18T05:42:30.675Z,991.21
2022-10-18T05:43:30.322Z,991.20
2022-10-18T05:44:31.108Z,991.25
2022-10-18T05:45:30.413Z,991.23
2022-10-18T05:46:30.422Z,991.21
2022-10-18T05:47:30.332Z,991.25
2022-10-18T05:48:30.268Z,991.24
2022-10-18T05:49:30.255Z,991.23
2022-10-18T05:50:30.234Z,991.20
2022-10-18T05:51:30.211Z,991.25
2022-10-18T05:52:30.562Z,991.21
2022-10-18T05:53:38.233Z,991.23
2022-10-18T05:54:31.198Z,991.25
2022-10-18T05:55:30.176Z,991.23
2022-10-18T05:56:30.248Z,991.20
2022-10-18T05:57:30.560Z,991.25
2022-10-18T05:58:30.142Z,991.22
2022-10-18T05:59:30.144Z,991.20
2022-10-18T06:00:30.127Z,991.23
2022-10-18T06:01:30.083Z,991.21
2022-10-18T06:02:30.174Z,991.20
2022-10-18T06:03:30.091Z,991.21
2022-10-18T06:04:30.073Z,991.25
2022-10-18T06:05:30.109Z,991.23
2022-10-18T06:06:30.061Z,991.23
2022-10-18T06:07:31.349Z,991.28
2022-10-18T06:08:30.829Z,991.32
2022-10-18T06:09:30.728Z,991.29
2022-10-18T06:10:30.008Z,991.32
2022-10-18T06:11:29.997Z,991.36
2022-10-18T06:12:29.990Z,991.33
2022-10-18T06:13:31.242Z,991.33
2022-10-18T06:14:29.953Z,991.37
2022-10-18T06:15:29.937Z,991.38
2022-10-18T06:16:32.558Z,991.34
2022-10-18T06:17:32.510Z,991.40
2022-10-18T06:18:29.955Z,991.37
2022-10-18T06:19:29.901Z,991.37
2022-10-18T06:20:29.916Z,991.36
2022-10-18T06:21:29.856Z,991.34
2022-10-18T06:22:29.930Z,991.37
2022-10-18T06:23:29.850Z,991.36
2022-10-18T06:24:29.843Z,991.38
2022-10-18T06:25:29.822Z,991.35
2022-10-18T06:26:29.863Z,991.35
2022-10-18T06:27:30.046Z,991.40
2022-10-18T06:28:29.901Z,991.40
2022-10-18T06:29:30.611Z,991.40
2022-10-18T06:30:29.774Z,991.41
2022-10-18T06:31:29.784Z,991.40
2022-10-18T06:32:29.874Z,991.41
2022-10-18T06:33:29.773Z,991.37
2022-10-18T06:34:30.634Z,991.46
2022-10-18T06:35:29.724Z,991.41
2022-10-18T06:36:29.711Z,991.47
2022-10-18T06:37:29.988Z,991.43
2022-10-18T06:38:29.688Z,991.45
2022-10-18T06:39:29.673Z,991.44
2022-10-18T06:40:29.748Z,991.46
2022-10-18T06:41:29.654Z,991.45
2022-10-18T06:42:29.814Z,991.45
2022-10-18T06:43:29.606Z,991.48
2022-10-18T06:44:29.952Z,991.51
2022-10-18T06:45:29.623Z,991.54
2022-10-18T06:46:29.595Z,991.59
2022-10-18T06:47:29.575Z,991.60
2022-10-18T06:48:30.354Z,991.60
2022-10-18T06:49:30.477Z,991.63
2022-10-18T06:50:29.986Z,991.64
2022-10-18T06:51:29.523Z,991.64
2022-10-18T06:52:29.798Z,991.63
2022-10-18T06:53:29.506Z,991.67
2022-10-18T06:54:29.497Z,991.69
2022-10-18T06:55:29.487Z,991.68
2022-10-18T06:56:29.544Z,991.65
2022-10-18T06:57:29.490Z,991.69
2022-10-18T06:58:29.469Z,991.70
2022-10-18T06:59:31.298Z,991.68
2022-10-18T07:00:29.437Z,991.69
2022-10-18T07:01:29.445Z,991.72
2022-10-18T07:02:29.680Z,991.75
2022-10-18T07:03:29.423Z,991.73
2022-10-18T07:04:29.470Z,991.73
2022-10-18T07:05:29.403Z,991.73
2022-10-18T07:06:29.365Z,991.71
2022-10-18T07:07:29.543Z,991.73
2022-10-18T07:08:29.364Z,991.72
2022-10-18T07:09:30.228Z,991.70
2022-10-18T07:10:29.327Z,991.69
2022-10-18T07:11:30.178Z,991.66
2022-10-18T07:12:29.295Z,991.70
2022-10-18T07:13:33.404Z,991.71
2022-10-18T07:14:29.384Z,991.70
2022-10-18T07:15:29.299Z,991.75
2022-10-18T07:16:29.266Z,991.73
2022-10-18T07:17:29.387Z,991.74
2022-10-18T07:18:29.228Z,991.73
2022-10-18T07:19:29.312Z,991.75
2022-10-18T07:20:29.229Z,991.82
2022-10-18T07:21:29.184Z,991.80
2022-10-18T07:22:30.409Z,991.83
2022-10-18T07:23:29.214Z,991.83
2022-10-18T07:24:29.305Z,991.86
2022-10-18T07:25:30.595Z,991.88
2022-10-18T07:26:29.157Z,991.88
2022-10-18T07:27:29.306Z,991.91
2022-10-18T07:28:29.152Z,991.91
2022-10-18T07:29:29.136Z,991.94
2022-10-18T07:30:29.095Z,991.96
2022-10-18T07:31:29.107Z,992.02
2022-10-18T07:32:29.085Z,991.99
2022-10-18T07:33:29.091Z,991.98
2022-10-18T07:34:29.143Z,991.98
2022-10-18T07:35:29.065Z,992.00
2022-10-18T07:36:29.035Z,992.02
2022-10-18T07:37:30.214Z,992.00
2022-10-18T07:38:29.087Z,992.01
2022-10-18T07:39:29.777Z,992.06
2022-10-18T07:40:28.972Z,992.08
2022-10-18T07:41:28.967Z,992.07
2022-10-18T07:42:28.977Z,992.01
2022-10-18T07:43:28.935Z,991.98
2022-10-18T07:44:28.934Z,992.01
2022-10-18T07:45:28.999Z,991.97
2022-10-18T07:46:28.906Z,992.00
2022-10-18T07:47:31.299Z,991.98
2022-10-18T07:48:29.896Z,992.00
2022-10-18T07:49:29.834Z,992.01
2022-10-18T07:50:29.751Z,992.04
2022-10-18T07:51:28.873Z,992.05
2022-10-18T07:52:28.825Z,992.12
2022-10-18T07:53:28.841Z,992.11
2022-10-18T07:54:28.841Z,992.11
2022-10-18T07:55:28.806Z,992.18
2022-10-18T07:56:28.814Z,992.20
2022-10-18T07:57:28.876Z,992.23
2022-10-18T07:58:28.787Z,992.23
2022-10-18T07:59:28.785Z,992.27
2022-10-18T08:00:28.775Z,992.30
2022-10-18T08:01:28.810Z,992.30
2022-10-18T08:02:28.736Z,992.30
2022-10-18T08:03:28.745Z,992.32
2022-10-18T08:04:28.746Z,992.28
2022-10-18T08:05:28.756Z,992.27
2022-10-18T08:06:28.675Z,992.26
2022-10-18T08:07:28.854Z,992.25
2022-10-18T08:08:28.708Z,992.20
2022-10-18T08:09:28.686Z,992.23
2022-10-18T08:10:29.363Z,992.26
2022-10-18T08:11:29.534Z,992.28
2022-10-18T08:12:28.622Z,992.27
2022-10-18T08:13:28.617Z,992.31
2022-10-18T08:14:28.624Z,992.34
2022-10-18T08:15:28.610Z,992.36
2022-10-18T08:16:28.628Z,992.35
2022-10-18T08:17:28.723Z,992.30
2022-10-18T08:18:29.334Z,992.36
2022-10-18T08:19:28.553Z,992.34
2022-10-18T08:20:31.629Z,992.33
2022-10-18T08:21:28.656Z,992.35
2022-10-18T08:22:28.527Z,992.34
2022-10-18T08:23:29.385Z,992.36
2022-10-18T08:24:29.286Z,992.37
2022-10-18T08:25:28.622Z,992.39
2022-10-18T08:26:28.536Z,992.42
2022-10-18T08:27:28.494Z,992.39
2022-10-18T08:28:29.265Z,992.37
2022-10-18T08:29:31.690Z,992.44
2022-10-18T08:30:29.229Z,992.45
2022-10-18T08:31:28.474Z,992.42
2022-10-18T08:32:28.438Z,992.42
2022-10-18T08:33:28.398Z,992.41
2022-10-18T08:34:28.503Z,992.39
2022-10-18T08:35:28.385Z,992.43
2022-10-18T08:36:28.366Z,992.43
2022-10-18T08:37:28.407Z,992.41
2022-10-18T08:38:28.394Z,992.44
2022-10-18T08:39:28.345Z,992.44
2022-10-18T08:40:28.337Z,992.46
2022-10-18T08:41:28.325Z,992.41
2022-10-18T08:42:28.419Z,992.42
2022-10-18T08:43:28.358Z,992.50
2022-10-18T08:44:28.288Z,992.50
2022-10-18T08:45:41.937Z,992.49
2022-10-18T08:46:29.299Z,992.51
2022-10-18T08:47:28.275Z,992.53
2022-10-18T08:48:28.248Z,992.52
2022-10-18T08:49:28.242Z,992.53
2022-10-18T08:50:28.266Z,992.52
2022-10-18T08:51:28.409Z,992.52
2022-10-18T08:52:29.253Z,992.53
2022-10-18T08:53:28.280Z,992.54
2022-10-18T08:54:28.177Z,992.50
2022-10-18T08:55:28.235Z,992.55
2022-10-18T08:56:28.172Z,992.58
2022-10-18T08:57:28.150Z,992.58
2022-10-18T08:58:28.107Z,992.60
2022-10-18T08:59:28.452Z,992.62
2022-10-18T09:00:28.112Z,992.66
2022-10-18T09:01:28.137Z,992.62
2022-10-18T09:02:28.123Z,992.62
2022-10-18T09:03:28.134Z,992.66
2022-10-18T09:04:28.071Z,992.69
2022-10-18T09:05:28.037Z,992.71
2022-10-18T09:06:28.008Z,992.70
2022-10-18T09:07:28.103Z,992.74
2022-10-18T09:08:29.085Z,992.70
2022-10-18T09:09:28.007Z,992.70
2022-10-18T09:10:27.968Z,992.70
2022-10-18T09:11:27.987Z,992.69
2022-10-18T09:12:27.991Z,992.70
2022-10-18T09:13:28.679Z,992.71
2022-10-18T09:14:27.981Z,992.73
2022-10-18T09:15:27.929Z,992.73
2022-10-18T09:16:27.908Z,992.73
2022-10-18T09:17:27.951Z,992.73
2022-10-18T09:18:27.914Z,992.71
2022-10-18T09:19:27.918Z,992.71
2022-10-18T09:20:27.929Z,992.73
2022-10-18T09:21:27.881Z,992.78
2022-10-18T09:22:27.862Z,992.75
2022-10-18T09:23:27.840Z,992.77
2022-10-18T09:24:27.872Z,992.79
2022-10-18T09:25:27.819Z,992.80
2022-10-18T09:26:27.832Z,992.80
2022-10-18T09:27:27.809Z,992.79
2022-10-18T09:28:27.802Z,992.83
2022-10-18T09:29:27.773Z,992.82
2022-10-18T09:30:27.895Z,992.83
2022-10-18T09:31:27.771Z,992.81
2022-10-18T09:32:28.647Z,992.84
2022-10-18T09:33:28.579Z,992.83
2022-10-18T09:34:27.958Z,992.85
2022-10-18T09:35:27.711Z,992.87
2022-10-18T09:36:27.818Z,992.82
2022-10-18T09:37:28.426Z,992.79
2022-10-18T09:38:27.782Z,992.82
2022-10-18T09:39:27.701Z,992.82
2022-10-18T09:40:27.684Z,992.83
2022-10-18T09:41:35.201Z,992.83
2022-10-18T09:42:27.643Z,992.79
2022-10-18T09:43:27.623Z,992.83
2022-10-18T09:44:27.635Z,992.84
2022-10-18T09:45:27.603Z,992.80
2022-10-18T09:46:27.574Z,992.86
2022-10-18T09:47:27.600Z,992.84
2022-10-18T09:48:27.554Z,992.85
2022-10-18T09:49:27.571Z,992.86
2022-10-18T09:50:27.562Z,992.86
2022-10-18T09:51:27.862Z,992.83
2022-10-18T09:52:27.514Z,992.85
2022-10-18T09:53:28.463Z,992.80
2022-10-18T09:54:28.324Z,992.83
2022-10-18T09:55:27.485Z,992.83
2022-10-18T09:56:27.469Z,992.79
2022-10-18T09:57:27.511Z,992.81
2022-10-18T09:58:27.443Z,992.79
2022-10-18T09:59:27.438Z,992.83
2022-10-18T10:00:27.413Z,992.86
2022-10-18T10:01:27.432Z,992.83
2022-10-18T10:02:27.418Z,992.93
2022-10-18T10:03:27.421Z,992.89
2022-10-18T10:04:27.397Z,992.87
2022-10-18T10:05:27.446Z,992.90
2022-10-18T10:06:27.352Z,992.88
2022-10-18T10:07:29.809Z,992.90
2022-10-18T10:08:28.342Z,992.92
2022-10-18T10:09:27.334Z,992.90
2022-10-18T10:10:27.575Z,992.90
2022-10-18T10:11:27.308Z,992.87
2022-10-18T10:12:27.517Z,992.87
2022-10-18T10:13:28.104Z,992.90
2022-10-18T10:14:27.517Z,992.85
2022-10-18T10:15:31.260Z,992.89
2022-10-18T10:16:28.237Z,992.84
2022-10-18T10:17:27.526Z,992.85
2022-10-18T10:18:27.205Z,992.85
2022-10-18T10:19:27.208Z,992.86
2022-10-18T10:20:27.214Z,992.85
2022-10-18T10:21:27.192Z,992.85
2022-10-18T10:22:27.176Z,992.86
2022-10-18T10:23:27.207Z,992.88
2022-10-18T10:24:30.323Z,992.90
2022-10-18T10:25:27.375Z,992.94
2022-10-18T10:26:27.377Z,992.98
2022-10-18T10:27:27.145Z,993.02
2022-10-18T10:28:27.150Z,993.03
2022-10-18T10:29:43.517Z,993.07
2022-10-18T10:30:28.075Z,993.04
2022-10-18T10:31:27.076Z,993.03
2022-10-18T10:33:27.161Z,993.05
2022-10-18T10:34:27.045Z,993.05
2022-10-18T10:35:41.475Z,993.05
2022-10-18T10:36:28.007Z,993.03
2022-10-18T10:37:27.019Z,993.10
2022-10-18T10:38:26.990Z,993.07
2022-10-18T10:39:27.022Z,993.06
2022-10-18T10:40:28.703Z,993.06
2022-10-18T10:41:27.043Z,993.06
2022-10-18T10:42:26.937Z,993.04
2022-10-18T10:43:42.254Z,993.07
2022-10-18T10:44:27.957Z,993.04
2022-10-18T10:45:26.952Z,993.05
2022-10-18T10:46:26.898Z,993.05
2022-10-18T10:47:26.905Z,993.06
2022-10-18T10:48:31.036Z,993.06
2022-10-18T10:49:39.620Z,993.07
2022-10-18T10:50:27.893Z,993.09
2022-10-18T10:51:26.859Z,993.05
2022-10-18T10:52:28.056Z,993.10
2022-10-18T10:53:26.838Z,993.12
2022-10-18T10:54:27.698Z,993.10
2022-10-18T10:55:35.723Z,993.11
2022-10-18T10:56:27.800Z,993.10
2022-10-18T10:57:26.800Z,993.15
2022-10-18T10:58:26.768Z,993.13
2022-10-18T10:59:26.782Z,993.13
2022-10-18T11:00:26.745Z,993.08
2022-10-18T11:01:26.788Z,993.14
2022-10-18T11:02:26.728Z,993.12
2022-10-18T11:03:29.588Z,993.15
2022-10-18T11:04:26.700Z,993.10
2022-10-18T11:05:26.777Z,993.14
2022-10-18T11:06:26.678Z,993.13
2022-10-18T11:07:26.688Z,993.15
2022-10-18T11:08:26.671Z,993.16
2022-10-18T11:09:26.659Z,993.15
2022-10-18T11:10:26.639Z,993.18
2022-10-18T11:11:26.648Z,993.16
2022-10-18T11:12:27.003Z,993.14
2022-10-18T11:13:26.636Z,993.17
2022-10-18T11:14:27.422Z,993.16
2022-10-18T11:15:27.474Z,993.17
2022-10-18T11:16:26.569Z,993.12
2022-10-18T11:17:27.537Z,993.12
2022-10-18T11:18:26.569Z,993.07
2022-10-18T11:19:28.418Z,993.05
2022-10-18T11:20:26.529Z,993.02
2022-10-18T11:21:26.530Z,992.99
2022-10-18T11:22:26.523Z,993.06
2022-10-18T11:23:26.514Z,993.06
2022-10-18T11:24:26.480Z,993.04
2022-10-18T11:25:26.479Z,993.01
2022-10-18T11:26:26.478Z,993.04
2022-10-18T11:27:26.459Z,993.02
2022-10-18T11:28:26.472Z,992.99
2022-10-18T11:29:26.451Z,993.02
2022-10-18T11:30:26.408Z,993.00
2022-10-18T11:31:26.428Z,993.05
2022-10-18T11:32:26.404Z,993.04
2022-10-18T11:33:50.074Z,993.06
2022-10-18T11:34:27.432Z,993.01
2022-10-18T11:35:26.409Z,993.01
2022-10-18T11:36:26.343Z,993.01
2022-10-18T11:37:30.287Z,992.96
2022-10-18T11:38:27.357Z,992.92
2022-10-18T11:39:26.366Z,992.96
2022-10-18T11:40:26.323Z,992.93
2022-10-18T11:41:26.282Z,992.94
2022-10-18T11:42:26.322Z,992.93
2022-10-18T11:43:30.311Z,992.92
2022-10-18T11:44:27.282Z,992.90
2022-10-18T11:45:26.327Z,992.88
2022-10-18T11:46:26.244Z,992.90
2022-10-18T11:47:26.221Z,992.89
2022-10-18T11:48:26.260Z,992.88
2022-10-18T11:49:26.211Z,992.88
2022-10-18T11:50:26.276Z,992.90
2022-10-18T11:51:38.700Z,992.90
2022-10-18T11:52:27.182Z,992.92
2022-10-18T11:53:26.153Z,992.90
2022-10-18T11:54:26.167Z,992.88
2022-10-18T11:55:28.964Z,992.90
2022-10-18T11:56:27.873Z,992.93
2022-10-18T11:57:26.126Z,992.91
2022-10-18T11:58:26.125Z,992.91
2022-10-18T11:59:26.111Z,992.94
2022-10-18T12:01:28.453Z,992.95
2022-10-18T12:02:26.121Z,992.94
2022-10-18T12:03:26.047Z,992.93
2022-10-18T12:04:26.053Z,992.96
2022-10-18T12:05:26.020Z,992.97
2022-10-18T12:06:26.025Z,992.95
2022-10-18T12:07:30.269Z,992.98
2022-10-18T12:08:27.012Z,992.99
2022-10-18T12:09:25.984Z,992.91
2022-10-18T12:10:37.884Z,992.93
2022-10-18T12:11:26.964Z,992.93
2022-10-18T12:12:25.963Z,992.88
2022-10-18T12:13:25.939Z,992.92
2022-10-18T12:14:25.984Z,992.89
2022-10-18T12:15:25.924Z,992.90
2022-10-18T12:16:49.605Z,992.89
2022-10-18T12:17:42.090Z,992.89
2022-10-18T12:18:26.905Z,992.87
2022-10-18T12:19:27.025Z,992.88
2022-10-18T12:20:25.906Z,992.85
2022-10-18T12:21:26.023Z,992.84
2022-10-18T12:22:25.883Z,992.80
2022-10-18T12:23:25.874Z,992.78
2022-10-18T12:24:25.832Z,992.76
2022-10-18T12:25:25.814Z,992.78
2022-10-18T12:26:25.816Z,992.71
2022-10-18T12:27:25.796Z,992.77
2022-10-18T12:28:25.820Z,992.71
2022-10-18T12:29:25.754Z,992.73
2022-10-18T12:30:25.792Z,992.74
2022-10-18T12:31:25.773Z,992.76
2022-10-18T12:32:25.737Z,992.72